Time;durP1;ratioP1;P1;durP2;ratioP2;P2;SDS_P1;SDS_P2;PMS_P1;PMS_P2;Temp;Humidity;BMP_temperature;BMP_pressure;BME280_temperature;BME280_humidity;BME280_pressure;Samples;Min_cycle;Max_cycle;Signal;HPM_P1;HPM_P2
2022/11/28 00:01:33;;;;;;;43.03;26.42;;;;;;;6.10;100.00;100885.22;5052740;28;20105;-49
2022/11/28 00:03:58;;;;;;;59.22;39.05;;;;;;;6.12;100.00;100890.41;5052183;28;20077;-49
2022/11/28 00:06:24;;;;;;;45.88;27.92;;;;;;;6.15;100.00;100881.19;5052448;28;20422;-48
2022/11/28 00:08:50;;;;;;;41.20;21.70;;;;;;;6.20;100.00;100876.31;5052546;28;20075;-49
2022/11/28 00:11:16;;;;;;;32.65;19.83;;;;;;;6.25;100.00;100878.28;5051861;28;20068;-50
2022/11/28 00:13:43;;;;;;;44.78;27.38;;;;;;;6.29;100.00;100875.84;5052423;28;20025;-49
2022/11/28 00:16:13;;;;;;;48.60;29.00;;;;;;;6.30;100.00;100875.94;5052608;28;20032;-49
2022/11/28 00:18:38;;;;;;;36.38;20.48;;;;;;;6.33;100.00;100875.22;5052080;28;20017;-48
2022/11/28 00:21:06;;;;;;;43.25;27.25;;;;;;;6.34;100.00;100871.81;5052803;28;20427;-49
2022/11/28 00:23:32;;;;;;;34.67;19.80;;;;;;;6.37;100.00;100866.88;5052015;28;20563;-47
2022/11/28 00:26:06;;;;;;;42.63;19.17;;;;;;;6.37;100.00;100865.19;5052095;28;20020;-49
2022/11/28 00:28:31;;;;;;;34.67;20.25;;;;;;;6.41;100.00;100863.66;5052163;28;20125;-48
2022/11/28 00:30:57;;;;;;;29.65;17.38;;;;;;;6.47;100.00;100866.50;5051993;28;20115;-48
2022/11/28 00:33:22;;;;;;;32.45;17.35;;;;;;;6.53;100.00;100859.09;5052464;28;20075;-49
2022/11/28 00:35:48;;;;;;;32.65;16.73;;;;;;;6.61;100.00;100859.47;5052333;28;20028;-47
2022/11/28 00:38:13;;;;;;;32.80;19.05;;;;;;;6.66;100.00;100863.09;5051786;28;20040;-49
2022/11/28 00:40:39;;;;;;;30.20;15.50;;;;;;;6.74;100.00;100863.44;5052170;28;20040;-49
2022/11/28 00:43:04;;;;;;;30.63;17.08;;;;;;;6.74;100.00;100853.22;5052421;28;20029;-49
2022/11/28 00:45:29;;;;;;;26.55;14.25;;;;;;;6.83;100.00;100862.97;5051867;28;20100;-50
2022/11/28 00:47:55;;;;;;;43.28;25.85;;;;;;;6.86;100.00;100866.56;5052440;28;20064;-50
2022/11/28 00:50:20;;;;;;;27.67;17.35;;;;;;;6.87;100.00;100865.75;5052430;28;20060;-48
2022/11/28 00:52:45;;;;;;;80.25;34.80;;;;;;;6.91;100.00;100857.38;5051350;28;20017;-50
2022/11/28 00:55:11;;;;;;;26.48;14.60;;;;;;;6.92;100.00;100848.91;5052427;28;20041;-49
2022/11/28 00:57:36;;;;;;;37.90;19.80;;;;;;;6.96;100.00;100856.72;5051894;28;20413;-49
2022/11/28 01:00:03;;;;;;;26.25;14.65;;;;;;;6.97;100.00;100851.69;5051272;28;20053;-49
2022/11/28 01:02:28;;;;;;;30.92;17.45;;;;;;;6.99;100.00;100844.91;5052324;28;20416;-51
2022/11/28 01:04:53;;;;;;;24.00;14.27;;;;;;;6.99;100.00;100844.06;5052098;28;20028;-50
2022/11/28 01:07:19;;;;;;;26.42;16.85;;;;;;;6.97;100.00;100845.66;5051374;28;20029;-49
2022/11/28 01:09:44;;;;;;;32.50;17.20;;;;;;;6.98;100.00;100847.41;5051861;28;20043;-49
2022/11/28 01:12:09;;;;;;;31.65;18.10;;;;;;;6.97;100.00;100840.53;5052211;28;20029;-48
2022/11/28 01:14:35;;;;;;;31.73;15.82;;;;;;;6.96;100.00;100839.66;5050992;28;20108;-49
2022/11/28 01:17:00;;;;;;;25.02;13.75;;;;;;;6.99;100.00;100851.75;5054587;28;20033;-49
2022/11/28 01:19:25;;;;;;;42.70;22.98;;;;;;;7.00;100.00;100851.81;5055760;28;20103;-48
2022/11/28 01:21:51;;;;;;;26.98;14.95;;;;;;;6.99;100.00;100842.34;5055031;28;20033;-48
2022/11/28 01:24:16;;;;;;;26.85;15.07;;;;;;;6.95;100.00;100842.16;5055698;28;20020;-50
2022/11/28 01:26:42;;;;;;;80.72;39.50;;;;;;;6.87;100.00;100847.81;5055262;28;20070;-50
2022/11/28 01:29:07;;;;;;;35.33;18.38;;;;;;;6.79;100.00;100841.50;5055080;28;20100;-49
2022/11/28 01:31:33;;;;;;;64.60;34.25;;;;;;;6.73;100.00;100852.31;5055254;28;20086;-48
2022/11/28 01:33:58;;;;;;;34.35;19.45;;;;;;;6.70;100.00;100846.16;5055478;28;20021;-50
2022/11/28 01:36:25;;;;;;;32.60;17.60;;;;;;;6.69;100.00;100841.88;5054936;28;20025;-48
2022/11/28 01:38:51;;;;;;;34.13;17.08;;;;;;;6.65;100.00;100853.66;5055189;28;20033;-49
2022/11/28 01:41:20;;;;;;;39.35;20.63;;;;;;;6.64;100.00;100845.91;5054671;28;20071;-49
2022/11/28 01:43:57;;;;;;;33.15;18.38;;;;;;;6.65;100.00;100845.97;5054847;28;20021;-50
2022/11/28 01:46:22;;;;;;;56.03;30.17;;;;;;;6.64;100.00;100851.03;5055453;28;20078;-50
2022/11/28 01:48:49;;;;;;;31.23;15.63;;;;;;;6.63;100.00;100845.03;5054332;28;20021;-49
2022/11/28 01:51:14;;;;;;;35.25;17.58;;;;;;;6.62;100.00;100842.41;5055234;28;20029;-49
2022/11/28 01:53:44;;;;;;;43.65;21.80;;;;;;;6.57;100.00;100853.31;5054951;28;20381;-48
2022/11/28 01:56:24;;;;;;;31.83;16.63;;;;;;;6.52;100.00;100847.09;5054401;28;20499;-49
2022/11/28 01:58:58;;;;;;;53.47;26.80;;;;;;;6.46;100.00;100851.94;5055179;28;20029;-48
2022/11/28 02:01:24;;;;;;;27.02;15.40;;;;;;;6.40;100.00;100852.53;5054820;28;20049;-49
2022/11/28 02:03:52;;;;;;;32.00;17.33;;;;;;;6.36;100.00;100844.63;5054203;28;20451;-48
2022/11/28 02:06:22;;;;;;;30.05;16.23;;;;;;;6.33;100.00;100847.06;5054884;28;20103;-49
2022/11/28 02:08:51;;;;;;;63.90;30.70;;;;;;;6.29;100.00;100848.59;5054554;28;20035;-48
2022/11/28 02:11:48;;;;;;;76.97;32.55;;;;;;;6.29;100.00;100837.47;5054347;28;20029;-49
2022/11/28 02:15:15;;;;;;;33.40;16.35;;;;;;;6.28;100.00;100830.59;5054991;28;20484;-49
2022/11/28 02:18:05;;;;;;;51.47;24.60;;;;;;;6.23;100.00;100823.56;5009156;28;20042;-50
2022/11/28 02:21:02;;;;;;;132.73;57.13;;;;;;;6.24;100.00;100827.88;5052724;28;20132;-48
2022/11/28 02:24:05;;;;;;;61.25;27.58;;;;;;;6.22;100.00;100826.97;5034753;28;20048;-49
2022/11/28 02:27:01;;;;;;;39.08;17.42;;;;;;;6.22;100.00;100826.06;5054715;28;20044;-46
2022/11/28 02:29:53;;;;;;;31.95;15.88;;;;;;;6.20;100.00;100823.44;5053674;28;20037;-48
2022/11/28 02:32:51;;;;;;;42.45;21.30;;;;;;;6.18;100.00;100825.03;5054149;28;20083;-49
2022/11/28 02:35:32;;;;;;;31.92;16.50;;;;;;;6.18;100.00;100824.16;5054609;28;20025;-47
2022/11/28 02:38:32;;;;;;;34.53;17.05;;;;;;;6.18;100.00;100825.03;5053538;28;20428;-45
2022/11/28 02:41:06;;;;;;;49.72;22.75;;;;;;;6.16;100.00;100826.66;5047372;28;20127;-46
2022/11/28 02:43:46;;;;;;;103.85;44.92;;;;;;;6.18;100.00;100825.03;5053856;28;20035;-49
2022/11/28 02:46:23;;;;;;;26.25;15.20;;;;;;;6.17;100.00;100833.53;5053990;28;20021;-51
2022/11/28 02:48:56;;;;;;;31.77;17.02;;;;;;;6.17;100.00;100822.41;5054094;28;20043;-49
2022/11/28 02:51:41;;;;;;;33.13;16.92;;;;;;;6.17;100.00;100823.31;5053941;28;20112;-49
2022/11/28 02:54:09;;;;;;;32.08;17.55;;;;;;;6.13;100.00;100829.06;5053981;28;20104;-49
2022/11/28 02:56:35;;;;;;;35.50;20.65;;;;;;;6.11;100.00;100817.91;5053647;28;20159;-49
2022/11/28 02:59:01;;;;;;;31.63;15.75;;;;;;;6.09;100.00;100815.28;5053075;28;20107;-49
2022/11/28 03:01:37;;;;;;;32.95;17.13;;;;;;;6.07;100.00;100818.56;5053878;28;20044;-49
2022/11/28 03:04:23;;;;;;;33.70;17.48;;;;;;;6.07;100.00;100816.00;5054158;28;20071;-50
2022/11/28 03:07:06;;;;;;;36.88;19.73;;;;;;;6.03;100.00;100808.97;5052776;28;20032;-48
2022/11/28 03:09:34;;;;;;;29.98;15.85;;;;;;;6.01;100.00;100803.78;5053650;28;20096;-46
2022/11/28 03:12:20;;;;;;;28.58;15.88;;;;;;;6.00;100.00;100806.25;5053541;28;20041;-49
2022/11/28 03:14:52;;;;;;;29.55;15.75;;;;;;;5.98;100.00;100805.28;5053023;28;20029;-49
2022/11/28 03:17:31;;;;;;;27.52;15.65;;;;;;;5.97;100.00;100800.97;5053561;28;20028;-49
2022/11/28 03:20:01;;;;;;;26.75;15.15;;;;;;;5.97;100.00;100799.28;5053027;28;20032;-49
2022/11/28 03:22:39;;;;;;;26.30;14.63;;;;;;;5.97;100.00;100806.09;5053727;28;20021;-48
2022/11/28 03:25:18;;;;;;;28.90;15.50;;;;;;;5.97;100.00;100808.66;5053516;28;20028;-50
2022/11/28 03:27:48;;;;;;;26.42;15.57;;;;;;;5.96;100.00;100810.31;5052254;28;20021;-49
2022/11/28 03:30:20;;;;;;;28.08;15.45;;;;;;;5.96;100.00;100812.00;5053540;28;20139;-49
2022/11/28 03:32:50;;;;;;;33.83;16.05;;;;;;;5.97;100.00;100808.66;5053149;28;20052;-48
2022/11/28 03:35:19;;;;;;;30.45;16.58;;;;;;;5.97;100.00;100803.53;5053031;28;20107;-49
2022/11/28 03:37:51;;;;;;;31.20;15.88;;;;;;;5.96;100.00;100806.91;5053054;28;20063;-49
2022/11/28 03:40:23;;;;;;;32.75;16.58;;;;;;;5.98;100.00;100811.31;5051863;28;20036;-48
2022/11/28 03:42:57;;;;;;;30.30;17.42;;;;;;;5.97;100.00;100804.41;5052687;28;20052;-47
2022/11/28 03:45:27;;;;;;;31.80;16.80;;;;;;;6.00;100.00;100798.59;5053286;28;20036;-49
2022/11/28 03:48:07;;;;;;;29.92;16.67;;;;;;;6.00;100.00;100793.47;5052023;28;20108;-49
2022/11/28 03:50:39;;;;;;;36.67;17.17;;;;;;;5.98;100.00;100801.09;5052651;28;20135;-49
2022/11/28 03:53:13;;;;;;;31.25;16.58;;;;;;;6.00;100.00;100803.72;5053268;28;20074;-48
2022/11/28 03:55:43;;;;;;;29.52;15.88;;;;;;;5.98;100.00;100801.09;5052078;28;20078;-49
2022/11/28 03:58:16;;;;;;;29.92;16.00;;;;;;;5.98;100.00;100805.28;5052976;28;20536;-50
2022/11/28 04:00:55;;;;;;;34.70;16.40;;;;;;;6.00;100.00;100803.72;5052241;28;20045;-49
2022/11/28 04:03:50;;;;;;;28.52;15.13;;;;;;;6.00;100.00;100806.25;5052543;28;20066;-48
2022/11/28 04:06:25;;;;;;;31.58;16.05;;;;;;;5.97;100.00;100800.97;5053085;28;20125;-49
2022/11/28 04:09:02;;;;;;;31.23;15.57;;;;;;;5.98;100.00;100806.19;5052407;28;20037;-50
2022/11/28 04:11:37;;;;;;;30.75;16.35;;;;;;;5.98;100.00;100805.28;5052809;28;20116;-48
2022/11/28 04:14:20;;;;;;;25.30;15.95;;;;;;;5.98;100.00;100807.84;5052933;28;20048;-49
2022/11/28 04:17:11;;;;;;;33.08;17.63;;;;;;;5.99;100.00;100804.50;5051679;28;20075;-49
2022/11/28 04:19:43;;;;;;;27.45;15.38;;;;;;;5.99;100.00;100801.94;5052452;28;20469;-47
2022/11/28 04:22:20;;;;;;;32.65;16.35;;;;;;;5.97;100.00;100803.53;5052735;28;20029;-48
2022/11/28 04:24:54;;;;;;;30.17;16.38;;;;;;;5.99;100.00;100801.94;5051930;28;20061;-45
2022/11/28 04:27:25;;;;;;;30.73;16.45;;;;;;;5.98;100.00;100800.16;5052699;28;20318;-49
2022/11/28 04:29:56;;;;;;;32.20;17.15;;;;;;;5.97;100.00;100806.09;5052032;28;20079;-47
2022/11/28 04:32:23;;;;;;;32.60;16.95;;;;;;;5.96;100.00;100802.66;5051897;28;20033;-47
2022/11/28 04:34:55;;;;;;;30.17;16.92;;;;;;;5.99;100.00;100801.94;5052391;28;20055;-48
2022/11/28 04:37:23;;;;;;;32.38;17.02;;;;;;;5.97;100.00;100806.09;5051655;28;20698;-49
2022/11/28 04:39:51;;;;;;;32.92;18.38;;;;;;;5.99;100.00;100801.94;5052258;28;20032;-49
2022/11/28 04:42:25;;;;;;;30.98;17.60;;;;;;;5.97;100.00;100806.09;5052534;28;20036;-49
2022/11/28 04:44:55;;;;;;;35.15;18.10;;;;;;;5.97;100.00;100803.53;5051328;28;20044;-49
2022/11/28 04:47:22;;;;;;;31.58;17.80;;;;;;;5.97;100.00;100804.41;5052600;28;20103;-50
2022/11/28 04:49:48;;;;;;;32.08;17.52;;;;;;;5.97;100.00;100803.53;5051744;28;20434;-48
2022/11/28 04:52:40;;;;;;;30.42;17.02;;;;;;;5.98;100.00;100802.72;5054740;28;20053;-50
2022/11/28 04:55:34;;;;;;;30.42;17.90;;;;;;;5.99;100.00;100805.41;5056334;28;20021;-49
2022/11/28 04:58:17;;;;;;;30.38;17.65;;;;;;;5.99;100.00;100809.63;5056040;28;20395;-48
2022/11/28 05:00:44;;;;;;;32.42;17.67;;;;;;;5.98;100.00;100805.28;5055773;28;20116;-46
2022/11/28 05:03:10;;;;;;;30.15;17.67;;;;;;;5.97;100.00;100804.41;5056169;28;20538;-49
2022/11/28 05:05:47;;;;;;;30.15;18.27;;;;;;;5.98;100.00;100802.72;5054954;28;20025;-48
2022/11/28 05:08:12;;;;;;;30.70;18.52;;;;;;;5.99;100.00;100809.63;5056294;28;20108;-49
2022/11/28 05:10:38;;;;;;;29.88;18.35;;;;;;;5.99;100.00;100807.06;5055882;28;20108;-49
2022/11/28 05:13:03;;;;;;;32.08;19.48;;;;;;;5.99;100.00;100812.19;5055313;28;20376;-49
2022/11/28 05:15:29;;;;;;;30.88;19.08;;;;;;;5.98;100.00;100816.44;5056035;28;20358;-48
2022/11/28 05:17:54;;;;;;;32.78;19.67;;;;;;;5.99;100.00;100810.53;5055388;28;20029;-50
2022/11/28 05:20:19;;;;;;;31.77;20.02;;;;;;;6.00;100.00;100816.50;5055225;28;20412;-49
2022/11/28 05:22:44;;;;;;;36.05;20.83;;;;;;;6.01;100.00;100820.81;5055697;28;20033;-49
2022/11/28 05:25:10;;;;;;;32.13;19.90;;;;;;;6.02;100.00;100820.03;5055722;28;20029;-48
2022/11/28 05:27:35;;;;;;;33.35;20.50;;;;;;;6.03;100.00;100819.19;5054948;28;20025;-49
2022/11/28 05:30:01;;;;;;;35.10;22.00;;;;;;;6.03;100.00;100819.19;5055684;28;20036;-50
2022/11/28 05:32:30;;;;;;;38.95;22.48;;;;;;;6.04;100.00;100813.28;5055332;28;20029;-49
2022/11/28 05:34:56;;;;;;;34.35;21.95;;;;;;;6.03;100.00;100819.19;5054778;28;20029;-50
2022/11/28 05:37:21;;;;;;;39.13;23.77;;;;;;;6.03;100.00;100820.09;5055760;28;20017;-49
2022/11/28 05:39:46;;;;;;;44.22;25.60;;;;;;;6.04;100.00;100823.50;5055267;28;20074;-49
2022/11/28 05:42:11;;;;;;;40.47;23.92;;;;;;;6.04;100.00;100819.28;5055096;28;20472;-49
2022/11/28 05:44:37;;;;;;;40.13;25.02;;;;;;;6.05;100.00;100822.72;5055056;28;20032;-48
2022/11/28 05:47:02;;;;;;;39.47;25.20;;;;;;;6.06;100.00;100827.03;5055192;28;20066;-48
2022/11/28 05:49:27;;;;;;;39.38;25.30;;;;;;;6.07;100.00;100826.22;5054751;28;20040;-49
2022/11/28 05:51:53;;;;;;;38.50;24.30;;;;;;;6.06;100.00;100827.91;5055033;28;20416;-48
2022/11/28 05:54:18;;;;;;;43.65;26.77;;;;;;;6.06;100.00;100829.59;5055083;28;20390;-46
2022/11/28 05:56:43;;;;;;;40.63;26.63;;;;;;;6.06;100.00;100827.91;5054320;28;20064;-47
2022/11/28 05:59:09;;;;;;;42.08;27.17;;;;;;;6.06;100.00;100825.34;5055166;28;20024;-48
2022/11/28 06:01:34;;;;;;;45.97;26.67;;;;;;;6.06;100.00;100822.78;5053745;28;20037;-50
2022/11/28 06:04:00;;;;;;;48.72;28.13;;;;;;;6.07;100.00;100826.22;5053943;28;20052;-47
2022/11/28 06:06:32;;;;;;;46.47;28.30;;;;;;;6.05;100.00;100823.56;5054876;28;20108;-49
2022/11/28 06:08:57;;;;;;;47.30;29.33;;;;;;;6.07;100.00;100818.56;5054328;28;20104;-48
2022/11/28 06:11:25;;;;;;;46.20;28.92;;;;;;;6.07;100.00;100821.97;5054732;28;20025;-49
2022/11/28 06:13:50;;;;;;;46.55;28.63;;;;;;;6.07;100.00;100821.13;5054795;28;20377;-49
2022/11/28 06:16:19;;;;;;;48.50;30.45;;;;;;;6.07;100.00;100831.34;5054138;28;20488;-48
2022/11/28 06:18:44;;;;;;;46.80;29.65;;;;;;;6.08;100.00;100827.97;5054395;28;20445;-49
2022/11/28 06:21:12;;;;;;;49.95;30.23;;;;;;;6.09;100.00;100822.06;5054624;28;20064;-49
2022/11/28 06:23:38;;;;;;;51.90;31.15;;;;;;;6.09;100.00;100832.28;5053922;28;20021;-49
2022/11/28 06:26:09;;;;;;;49.92;30.60;;;;;;;6.08;100.00;100835.63;5054806;28;20025;-49
2022/11/28 06:28:35;;;;;;;51.35;29.95;;;;;;;6.09;100.00;100824.59;5054141;28;20040;-48
2022/11/28 06:31:00;;;;;;;52.22;31.90;;;;;;;6.07;100.00;100827.09;5053948;28;20029;-48
2022/11/28 06:33:25;;;;;;;53.08;32.00;;;;;;;6.08;100.00;100836.53;5054687;28;20035;-48
2022/11/28 06:35:51;;;;;;;53.47;32.20;;;;;;;6.08;100.00;100839.09;5053869;28;20393;-49
2022/11/28 06:38:16;;;;;;;55.63;33.03;;;;;;;6.09;100.00;100842.53;5053966;28;20132;-49
2022/11/28 06:40:41;;;;;;;54.30;32.25;;;;;;;6.09;100.00;100839.97;5053983;28;20021;-47
2022/11/28 06:43:07;;;;;;;50.88;30.83;;;;;;;6.09;100.00;100839.97;5054076;28;20487;-48
2022/11/28 06:45:33;;;;;;;52.72;32.08;;;;;;;6.09;100.00;100850.19;5053238;28;20051;-47
2022/11/28 06:48:00;;;;;;;51.70;32.28;;;;;;;6.10;100.00;100841.72;5054406;28;20025;-48
2022/11/28 06:50:25;;;;;;;52.28;32.53;;;;;;;6.10;100.00;100837.47;5054103;28;20104;-49
2022/11/28 06:52:53;;;;;;;58.70;33.92;;;;;;;6.10;100.00;100844.28;5053162;28;20564;-49
2022/11/28 06:55:18;;;;;;;55.38;33.78;;;;;;;6.11;100.00;100835.81;5054168;28;20036;-49
2022/11/28 06:57:44;;;;;;;54.03;32.53;;;;;;;6.12;100.00;100846.91;5052848;28;20401;-49
2022/11/28 07:00:09;;;;;;;55.35;34.17;;;;;;;6.12;100.00;100850.34;5053770;28;20052;-48
2022/11/28 07:02:35;;;;;;;55.58;33.70;;;;;;;6.11;100.00;100846.03;5053513;28;20389;-50
2022/11/28 07:05:00;;;;;;;61.35;35.00;;;;;;;6.12;100.00;100845.25;5053240;28;20035;-48
2022/11/28 07:07:25;;;;;;;56.75;34.63;;;;;;;6.12;100.00;100840.13;5053922;28;20024;-49
2022/11/28 07:09:51;;;;;;;61.90;36.35;;;;;;;6.12;100.00;100845.25;5053458;28;20078;-49
2022/11/28 07:12:16;;;;;;;63.17;36.42;;;;;;;6.15;100.00;100840.25;5052853;28;20070;-49
2022/11/28 07:14:41;;;;;;;65.90;37.80;;;;;;;6.14;100.00;100847.88;5053144;28;20481;-49
2022/11/28 07:17:07;;;;;;;62.80;36.50;;;;;;;6.14;100.00;100853.84;5053250;28;20029;-47
2022/11/28 07:19:32;;;;;;;63.10;37.33;;;;;;;6.15;100.00;100855.63;5052584;28;20041;-49
2022/11/28 07:21:57;;;;;;;69.95;39.83;;;;;;;6.16;100.00;100852.25;5053694;28;20386;-49
2022/11/28 07:24:23;;;;;;;67.30;37.83;;;;;;;6.16;100.00;100856.47;5053161;28;20068;-49
2022/11/28 07:26:48;;;;;;;63.22;37.20;;;;;;;6.16;100.00;100852.25;5052524;28;20025;-48
2022/11/28 07:29:17;;;;;;;66.13;35.97;;;;;;;6.18;100.00;100862.56;5053275;28;20025;-49
2022/11/28 07:31:43;;;;;;;67.90;39.25;;;;;;;6.17;100.00;100854.00;5052856;28;20033;-47
2022/11/28 07:34:09;;;;;;;66.47;38.42;;;;;;;6.18;100.00;100860.88;5052908;28;20032;-47
2022/11/28 07:36:34;;;;;;;69.60;39.15;;;;;;;6.18;100.00;100855.75;5052988;28;20457;-50
2022/11/28 07:39:02;;;;;;;66.18;37.55;;;;;;;6.18;100.00;100860.88;5052942;28;20024;-46
2022/11/28 07:41:28;;;;;;;70.50;38.63;;;;;;;6.18;100.00;100863.41;5052650;28;20036;-48
2022/11/28 07:43:56;;;;;;;71.30;40.25;;;;;;;6.20;100.00;100869.50;5052800;28;20024;-48
2022/11/28 07:46:22;;;;;;;68.72;39.53;;;;;;;6.21;100.00;100872.94;5052765;28;20452;-49
2022/11/28 07:48:47;;;;;;;70.63;39.13;;;;;;;6.21;100.00;100876.38;5052212;28;20025;-49
2022/11/28 07:51:15;;;;;;;88.22;45.70;;;;;;;6.22;100.00;100875.59;5053187;28;20037;-47
2022/11/28 07:53:42;;;;;;;72.47;40.60;;;;;;;6.20;100.00;100869.50;5052506;28;20033;-47
2022/11/28 07:56:11;;;;;;;75.63;39.92;;;;;;;6.21;100.00;100880.59;5052462;28;20021;-49
2022/11/28 07:58:37;;;;;;;75.15;40.58;;;;;;;6.22;100.00;100877.25;5052505;28;20040;-49
2022/11/28 08:01:10;;;;;;;80.43;44.25;;;;;;;6.22;100.00;100883.25;5051954;28;20033;-49
2022/11/28 08:03:35;;;;;;;81.75;46.65;;;;;;;6.25;100.00;100893.63;5052451;28;20369;-48
2022/11/28 08:06:01;;;;;;;79.93;40.25;;;;;;;6.24;100.00;100886.75;5052773;28;20021;-49
2022/11/28 08:08:27;;;;;;;79.43;43.90;;;;;;;6.24;100.00;100891.88;5052038;28;20056;-48
2022/11/28 08:10:56;;;;;;;87.43;44.30;;;;;;;6.25;100.00;100891.06;5052404;28;20033;-49
2022/11/28 08:13:21;;;;;;;74.45;41.28;;;;;;;6.26;100.00;100895.41;5052703;28;20021;-47
2022/11/28 08:15:46;;;;;;;101.13;58.35;;;;;;;6.28;100.00;100892.03;5051758;28;20112;-49
2022/11/28 08:18:12;;;;;;;80.95;45.72;;;;;;;6.28;100.00;100892.91;5052809;28;20464;-48
2022/11/28 08:20:38;;;;;;;104.05;58.63;;;;;;;6.29;100.00;100884.44;5052136;28;20025;-48
2022/11/28 08:23:03;;;;;;;113.30;67.47;;;;;;;6.31;100.00;100893.03;5052091;28;20130;-48
2022/11/28 08:25:28;;;;;;;76.57;42.92;;;;;;;6.34;100.00;100897.44;5052079;28;20025;-49
2022/11/28 08:27:53;;;;;;;75.22;39.92;;;;;;;6.36;100.00;100890.72;5052032;28;20418;-49
2022/11/28 08:30:19;;;;;;;89.95;51.95;;;;;;;6.35;100.00;100894.06;5052143;28;20036;-48
2022/11/28 08:32:44;;;;;;;75.45;40.42;;;;;;;6.37;100.00;100893.34;5052378;28;20487;-48
2022/11/28 08:35:09;;;;;;;77.32;41.58;;;;;;;6.40;100.00;100897.72;5052331;28;20470;-45
2022/11/28 08:37:34;;;;;;;71.72;40.28;;;;;;;6.41;100.00;100894.38;5051553;28;20033;-49
2022/11/28 08:40:00;;;;;;;91.03;49.72;;;;;;;6.42;100.00;100901.25;5052506;28;20667;-49
2022/11/28 08:42:26;;;;;;;77.05;40.85;;;;;;;6.46;100.00;100905.69;5052266;28;20032;-49
2022/11/28 08:44:52;;;;;;;101.40;52.38;;;;;;;6.47;100.00;100904.91;5051699;28;20064;-49
2022/11/28 08:47:17;;;;;;;79.40;43.20;;;;;;;6.51;100.00;100909.34;5052552;28;20099;-49
2022/11/28 08:49:42;;;;;;;73.32;39.25;;;;;;;6.52;100.00;100908.56;5051843;28;20052;-49
2022/11/28 08:52:07;;;;;;;73.68;38.83;;;;;;;6.54;100.00;100906.91;5051663;28;20384;-50
2022/11/28 08:54:33;;;;;;;78.38;43.05;;;;;;;6.53;100.00;100904.28;5051981;28;20021;-48
2022/11/28 08:57:00;;;;;;;71.70;38.70;;;;;;;6.56;100.00;100902.75;5052113;28;20017;-48
2022/11/28 08:59:25;;;;;;;74.20;39.72;;;;;;;6.57;100.00;100906.19;5051911;28;20032;-49
2022/11/28 09:01:54;;;;;;;75.78;37.85;;;;;;;6.59;100.00;100908.00;5051882;28;20057;-48
2022/11/28 09:04:20;;;;;;;74.63;38.40;;;;;;;6.59;100.00;100905.44;5051648;28;20036;-45
2022/11/28 09:06:46;;;;;;;78.60;39.85;;;;;;;6.61;100.00;100907.22;5051880;28;20025;-49
2022/11/28 09:09:11;;;;;;;78.40;39.22;;;;;;;6.63;100.00;100906.47;5052117;28;20078;-49
2022/11/28 09:11:37;;;;;;;82.32;41.28;;;;;;;6.66;100.00;100905.75;5050857;28;20106;-49
2022/11/28 09:14:02;;;;;;;155.25;82.07;;;;;;;6.67;100.00;100907.50;5052066;28;20107;-50
2022/11/28 09:16:27;;;;;;;140.05;69.20;;;;;;;6.67;100.00;100910.06;5051860;28;20067;-49
2022/11/28 09:18:53;;;;;;;82.18;42.38;;;;;;;6.68;100.00;100917.81;5051350;28;20029;-50
2022/11/28 09:21:19;;;;;;;99.30;45.28;;;;;;;6.69;100.00;100914.47;5052146;28;20028;-49
2022/11/28 09:23:44;;;;;;;108.82;51.13;;;;;;;6.69;100.00;100916.16;5051543;28;20418;-50
2022/11/28 09:26:13;;;;;;;89.45;40.17;;;;;;;6.70;100.00;100918.78;5051411;28;20025;-49
2022/11/28 09:28:39;;;;;;;95.70;43.67;;;;;;;6.72;100.00;100921.41;5051849;28;20083;-49
2022/11/28 09:31:05;;;;;;;89.65;42.05;;;;;;;6.73;100.00;100924.03;5051829;28;20430;-50
2022/11/28 09:33:32;;;;;;;92.95;43.55;;;;;;;6.74;100.00;100924.94;5051352;28;20029;-46
2022/11/28 09:35:57;;;;;;;90.40;42.47;;;;;;;6.78;100.00;100924.25;5052012;28;20369;-49
2022/11/28 09:38:24;;;;;;;78.38;38.03;;;;;;;6.79;100.00;100925.13;5052934;28;20461;-49
2022/11/28 09:40:50;;;;;;;74.22;37.28;;;;;;;6.80;100.00;100925.19;5054487;28;20420;-49
2022/11/28 09:43:34;;;;;;;77.88;37.08;;;;;;;6.81;100.00;100923.53;5055530;28;20517;-47
2022/11/28 09:46:02;;;;;;;131.20;63.92;;;;;;;6.83;100.00;100917.66;5055366;28;20155;-49
2022/11/28 09:48:36;;;;;;;83.70;39.67;;;;;;;6.87;100.00;100924.66;5054943;28;20021;-50
2022/11/28 09:51:22;;;;;;;94.68;46.60;;;;;;;6.91;100.00;100933.38;5055225;28;20040;-49
2022/11/28 09:54:39;;;;;;;80.25;37.22;;;;;;;6.94;100.00;100928.38;5054028;28;20487;-48
2022/11/28 09:57:20;;;;;;;79.80;38.50;;;;;;;6.94;100.00;100937.78;5033175;28;20080;-50
2022/11/28 09:59:45;;;;;;;80.75;38.83;;;;;;;6.97;100.00;100930.22;5054539;28;20104;-50
2022/11/28 10:02:37;;;;;;;93.15;47.08;;;;;;;6.99;100.00;100933.72;5054708;28;20113;-48
2022/11/28 10:05:08;;;;;;;70.20;34.95;;;;;;;7.01;100.00;100934.66;5055023;28;20072;-49
2022/11/28 10:07:36;;;;;;;75.13;35.15;;;;;;;7.04;100.00;100930.56;5054354;28;20032;-49
2022/11/28 10:10:15;;;;;;;83.72;45.05;;;;;;;7.05;100.00;100933.97;5055144;28;20029;-49
2022/11/28 10:13:09;;;;;;;74.50;37.83;;;;;;;7.09;100.00;100925.66;5054491;28;20109;-49
2022/11/28 10:15:43;;;;;;;89.10;49.45;;;;;;;7.09;100.00;100923.09;5053974;28;20082;-49
2022/11/28 10:18:22;;;;;;;75.93;37.90;;;;;;;7.13;100.00;100932.66;5054688;28;20103;-50
2022/11/28 10:20:58;;;;;;;69.63;35.67;;;;;;;7.19;100.00;100927.81;5054370;28;20130;-48
2022/11/28 10:23:41;;;;;;;74.32;36.90;;;;;;;7.21;100.00;100933.88;5054253;28;20104;-47
2022/11/28 10:26:22;;;;;;;72.45;35.15;;;;;;;7.29;100.00;100925.66;5054746;28;20040;-49
2022/11/28 10:28:51;;;;;;;74.30;37.10;;;;;;;7.29;100.00;100930.78;5053384;28;20025;-50
2022/11/28 10:31:35;;;;;;;81.57;43.05;;;;;;;7.35;100.00;100933.63;5054605;28;20056;-50
2022/11/28 10:34:13;;;;;;;88.47;47.47;;;;;;;7.38;100.00;100932.06;5054325;28;20080;-49
2022/11/28 10:36:57;;;;;;;124.85;73.95;;;;;;;7.39;100.00;100927.81;5053615;28;20036;-50
2022/11/28 10:39:24;;;;;;;79.00;38.08;;;;;;;7.39;100.00;100925.25;5054608;28;20021;-49
2022/11/28 10:42:10;;;;;;;85.05;44.10;;;;;;;7.42;100.00;100922.81;5053986;28;20020;-49
2022/11/28 10:44:46;;;;;;;96.60;48.90;;;;;;;7.42;100.00;100927.94;5053491;28;20029;-49
2022/11/28 10:47:34;;;;;;;92.78;45.97;;;;;;;7.46;100.00;100934.94;5054077;28;20504;-50
2022/11/28 10:50:18;;;;;;;93.05;44.17;;;;;;;7.45;100.00;100935.78;5053164;28;20039;-45
2022/11/28 10:52:50;;;;;;;128.52;61.78;;;;;;;7.47;100.00;100936.72;5053962;28;20059;-45
2022/11/28 10:55:23;;;;;;;87.65;42.65;;;;;;;7.48;100.00;100935.91;5053880;28;20036;-49
2022/11/28 10:58:08;;;;;;;160.77;78.60;;;;;;;7.51;100.00;100938.59;5053276;28;20075;-49
2022/11/28 11:00:35;;;;;;;206.63;106.32;;;;;;;7.49;100.00;100945.38;5053138;28;20044;-48
2022/11/28 11:03:01;;;;;;;100.93;45.80;;;;;;;7.49;100.00;100939.34;5053719;28;20044;-49
2022/11/28 11:05:33;;;;;;;122.97;61.38;;;;;;;7.49;100.00;100940.22;5053340;28;20278;-49
2022/11/28 11:08:24;;;;;;;107.43;53.05;;;;;;;7.51;100.00;100938.59;5053896;28;20028;-49
2022/11/28 11:11:00;;;;;;;99.32;46.67;;;;;;;7.50;100.00;100941.09;5053153;28;20039;-49
2022/11/28 11:13:31;;;;;;;110.30;49.85;;;;;;;7.51;100.00;100943.72;5053838;28;20024;-50
2022/11/28 11:16:10;;;;;;;109.63;52.53;;;;;;;7.56;100.00;100943.94;5053509;28;20048;-50
2022/11/28 11:18:41;;;;;;;111.82;51.55;;;;;;;7.57;100.00;100930.31;5052536;28;20033;-49
2022/11/28 11:21:15;;;;;;;119.88;55.63;;;;;;;7.59;100.00;100928.66;5053673;28;20098;-49
2022/11/28 11:23:41;;;;;;;137.32;60.80;;;;;;;7.60;100.00;100930.44;5053128;28;20025;-49
2022/11/28 11:26:10;;;;;;;141.18;62.47;;;;;;;7.66;100.00;100924.69;5053011;28;20023;-49